Pearl Beach, Michigan
Current Conditions -  °F | °C
As of 9:27 AM on Saturday 22 Nov 2014 (Local Time) from KMTC Reporting Station
Overcast Overcast  
Wind Chill: 24°   Ceiling: 1000
Heat Index: 32°   Visibility: 7mi
Dew Point: 32°   Wind: 10mph
Humidity: 100%   Direction: 210°SSW
Pressure: 30.07"   Gusts: NA
Location:  42.6418°N, 82.5677°W
Report Text: KMTC 221427Z 21009KT 7SM OVC010 M00/M00 A3007
Loading
Personal Weather Stations






























Interactive Weather Map New forecast layout! Learn more

10-Day Weather Forecast

Advertisements
Track Severe Weather on mobile